Time;durP1;ratioP1;P1;durP2;ratioP2;P2;SDS_P1;SDS_P2;PMS_P1;PMS_P2;Temp;Humidity;BMP_temperature;BMP_pressure;BME280_temperature;BME280_humidity;BME280_pressure;Samples;Min_cycle;Max_cycle;Signal;HPM_P1;HPM_P2
2021/04/10 00:01:49;;;;;;;1.60;1.00;;;;;;;25.87;13.11;98154.13;5080516;28;20036;-87
2021/04/10 00:04:16;;;;;;;1.73;1.30;;;;;;;25.71;12.86;98149.34;5063393;28;20029;-86
2021/04/10 00:06:42;;;;;;;1.50;1.10;;;;;;;26.35;12.67;98151.13;5062346;28;20086;-86
2021/04/10 00:09:08;;;;;;;1.50;1.25;;;;;;;26.27;13.06;98143.34;5063809;28;20036;-86
2021/04/10 00:11:36;;;;;;;1.08;0.98;;;;;;;26.40;12.79;98144.16;5060712;28;20041;-86
2021/04/10 00:14:06;;;;;;;2.08;1.13;;;;;;;26.48;12.91;98149.13;5081381;28;20054;-86
2021/04/10 00:16:34;;;;;;;1.27;1.10;;;;;;;26.70;12.53;98138.78;5077957;28;20028;-86
2021/04/10 00:19:00;;;;;;;2.15;1.00;;;;;;;27.30;12.35;98134.03;5092518;28;20020;-86
2021/04/10 00:21:26;;;;;;;1.88;1.17;;;;;;;27.34;12.30;98137.50;5075405;28;20098;-86
2021/04/10 00:23:52;;;;;;;2.10;1.10;;;;;;;27.06;12.14;98137.66;5075576;28;20032;-86
2021/04/10 00:26:18;;;;;;;1.10;0.93;;;;;;;26.80;12.33;98133.28;5098065;28;20085;-86
2021/04/10 00:28:44;;;;;;;2.97;1.00;;;;;;;26.97;12.50;98134.75;5094173;28;20020;-86
2021/04/10 00:31:10;;;;;;;1.08;0.98;;;;;;;27.00;12.53;98128.97;5092435;28;20162;-86
2021/04/10 00:33:41;;;;;;;4.55;1.30;;;;;;;26.73;12.45;98126.63;5092700;28;20032;-86
2021/04/10 00:36:08;;;;;;;2.65;1.30;;;;;;;25.58;13.42;98133.66;5079138;28;20036;-86
2021/04/10 00:38:36;;;;;;;2.17;1.15;;;;;;;26.12;13.29;98134.53;5092477;28;20038;-86
2021/04/10 00:41:04;;;;;;;1.25;1.10;;;;;;;26.30;13.32;98131.97;5093476;28;20036;-86
2021/04/10 00:43:30;;;;;;;1.50;1.10;;;;;;;26.66;13.12;98132.47;5088040;28;20036;-86
2021/04/10 00:45:56;;;;;;;1.35;1.00;;;;;;;26.50;12.80;98120.53;5097972;28;20487;-86
2021/04/10 00:48:23;;;;;;;1.95;1.10;;;;;;;26.20;13.47;98127.47;5104522;28;20023;-86
2021/04/10 00:50:51;;;;;;;2.00;1.15;;;;;;;25.87;13.55;98126.00;5071132;28;20032;-86
2021/04/10 00:53:20;;;;;;;1.00;0.90;;;;;;;26.34;13.29;98115.00;5092625;28;20047;-86
2021/04/10 00:55:47;;;;;;;1.85;1.27;;;;;;;26.18;13.71;98113.06;5092700;28;20082;-86
2021/04/10 00:58:15;;;;;;;1.80;1.27;;;;;;;26.12;13.68;98106.38;5095058;28;20056;-86
2021/04/10 01:00:41;;;;;;;1.95;0.95;;;;;;;26.26;13.69;98113.63;5092789;28;20032;-86
2021/04/10 01:03:07;;;;;;;1.33;0.90;;;;;;;25.96;13.59;98104.41;5093643;28;20588;-85
2021/04/10 01:05:34;;;;;;;1.30;1.00;;;;;;;25.92;13.76;98105.75;5093290;28;20031;-85
2021/04/10 01:08:00;;;;;;;1.30;0.85;;;;;;;25.87;13.46;98109.13;5092873;28;20032;-86
2021/04/10 01:10:28;;;;;;;1.08;0.98;;;;;;;26.07;13.86;98099.25;5094452;28;20043;-85
2021/04/10 01:13:36;;;;;;;3.75;1.52;;;;;;;26.84;12.60;98097.34;5095860;28;20060;-86
2021/04/10 01:16:02;;;;;;;1.55;1.08;;;;;;;27.39;12.97;98099.50;5091815;28;20035;-85
2021/04/10 01:18:40;;;;;;;2.38;1.00;;;;;;;27.66;12.72;98102.56;5092245;28;20024;-86
2021/04/10 01:21:28;;;;;;;2.90;1.38;;;;;;;27.42;12.69;98106.28;5084226;28;20417;-86
2021/04/10 01:24:21;;;;;;;1.10;1.00;;;;;;;26.87;12.36;98116.16;5098150;28;20081;-86
2021/04/10 01:27:04;;;;;;;1.17;0.90;;;;;;;26.36;13.16;98104.84;5056143;28;20032;-86
2021/04/10 01:29:33;;;;;;;1.63;1.15;;;;;;;26.77;13.09;98120.88;5093020;28;20032;-86
2021/04/10 01:31:59;;;;;;;2.47;0.98;;;;;;;26.89;13.06;98122.91;5093475;28;20028;-86
2021/04/10 01:34:40;;;;;;;1.27;0.85;;;;;;;26.70;13.09;98121.06;5091821;28;20039;-86
2021/04/10 01:37:10;;;;;;;1.73;0.90;;;;;;;26.68;13.37;98117.94;5097311;28;20027;-86
2021/04/10 01:39:38;;;;;;;2.03;1.20;;;;;;;26.86;13.64;98111.75;5091307;28;20521;-86
2021/04/10 01:42:06;;;;;;;0.80;0.70;;;;;;;26.81;13.20;98109.50;5089697;28;20038;-86
2021/04/10 01:44:32;;;;;;;2.97;0.90;;;;;;;26.58;13.52;98105.75;5092086;28;20032;-86
2021/04/10 01:46:59;;;;;;;2.58;0.90;;;;;;;26.89;13.22;98103.19;5092268;28;20111;-87
2021/04/10 01:49:27;;;;;;;2.88;0.82;;;;;;;27.13;13.18;98095.94;5083866;28;20093;-86
2021/04/10 01:51:53;;;;;;;1.55;0.85;;;;;;;27.13;12.61;98095.16;5075289;28;20028;-86
2021/04/10 01:54:20;;;;;;;1.65;1.17;;;;;;;26.91;12.87;98097.13;5092387;28;20050;-85
2021/04/10 01:56:48;;;;;;;2.70;0.90;;;;;;;26.77;13.45;98101.16;5090317;28;20032;-86
2021/04/10 01:59:16;;;;;;;1.25;0.88;;;;;;;26.89;12.99;98097.53;5093856;28;20036;-86
2021/04/10 02:01:47;;;;;;;1.45;0.75;;;;;;;26.99;13.39;98093.59;5093129;28;20070;-86
2021/04/10 02:04:13;;;;;;;0.70;0.70;;;;;;;26.97;12.75;98090.44;5099151;28;20044;-86
2021/04/10 02:06:45;;;;;;;1.80;0.82;;;;;;;26.98;12.79;98085.59;5098473;28;20023;-86
2021/04/10 02:09:12;;;;;;;1.25;0.88;;;;;;;26.85;12.85;98088.44;5095783;28;20100;-86
2021/04/10 02:11:44;;;;;;;2.05;0.90;;;;;;;26.79;12.85;98083.81;5097586;28;20028;-86
2021/04/10 02:14:14;;;;;;;2.35;0.70;;;;;;;26.76;12.99;98090.34;5095973;28;20054;-87
2021/04/10 02:16:41;;;;;;;1.75;0.75;;;;;;;26.86;13.26;98084.38;5090600;28;20365;-87
2021/04/10 02:19:08;;;;;;;1.02;0.70;;;;;;;26.77;13.01;98081.44;5077447;28;20122;-86
2021/04/10 02:21:37;;;;;;;0.90;0.80;;;;;;;26.84;13.12;98086.09;5093508;28;20047;-86
2021/04/10 02:24:03;;;;;;;1.67;0.77;;;;;;;27.00;12.96;98080.31;5095686;28;20479;-86
2021/04/10 02:26:29;;;;;;;0.98;0.70;;;;;;;27.04;12.87;98078.94;5092959;28;20387;-86
2021/04/10 02:28:57;;;;;;;2.10;0.80;;;;;;;27.13;12.72;98081.06;5098996;28;20039;-86
2021/04/10 02:31:29;;;;;;;1.20;0.73;;;;;;;26.91;13.21;98091.47;5091798;28;20040;-87
2021/04/10 02:34:16;;;;;;;0.98;0.65;;;;;;;26.79;12.97;98081.00;5101362;28;20032;-86
2021/04/10 02:36:46;;;;;;;1.17;0.55;;;;;;;26.63;13.13;98081.88;5089039;28;20050;-86
2021/04/10 02:39:14;;;;;;;5.27;0.70;;;;;;;26.60;13.07;98079.97;5095186;28;20391;-87
2021/04/10 02:41:43;;;;;;;1.42;0.60;;;;;;;26.49;13.22;98079.53;5095723;28;20044;-87
2021/04/10 02:44:10;;;;;;;0.60;0.60;;;;;;;26.44;13.41;98080.09;5096898;28;20119;-87
2021/04/10 02:46:45;;;;;;;0.95;0.45;;;;;;;26.45;12.96;98076.81;5099859;28;20085;-87
2021/04/10 02:49:16;;;;;;;4.10;0.88;;;;;;;26.24;13.59;98079.50;5089631;28;20111;-86
2021/04/10 02:51:48;;;;;;;;;;;;;;;26.06;13.21;98072.38;5094497;28;20031;-86
2021/04/10 02:54:19;;;;;;;0.95;0.75;;;;;;;26.11;13.56;98087.16;5102881;28;19920;-86
2021/04/10 02:57:12;;;;;;;1.05;0.65;;;;;;;25.56;13.61;98086.28;5097336;28;20035;-86
2021/04/10 02:59:45;;;;;;;0.82;0.50;;;;;;;25.68;13.71;98079.91;5090464;28;20048;-86
2021/04/10 03:02:12;;;;;;;0.50;0.45;;;;;;;25.51;14.04;98088.88;5092077;28;20051;-85
2021/04/10 03:04:41;;;;;;;0.98;0.52;;;;;;;25.38;14.04;98089.56;5093107;28;20116;-84
2021/04/10 03:07:10;;;;;;;1.13;0.50;;;;;;;25.50;14.24;98084.47;5091157;28;20450;-84
2021/04/10 03:09:43;;;;;;;1.92;0.65;;;;;;;25.43;13.86;98088.22;5094539;28;20047;-84
2021/04/10 03:12:20;;;;;;;1.85;0.70;;;;;;;25.05;14.38;98076.78;5080621;28;20031;-85
2021/04/10 03:14:48;;;;;;;0.75;0.60;;;;;;;24.96;14.56;98087.88;5091808;28;20032;-85
2021/04/10 03:17:22;;;;;;;2.47;0.50;;;;;;;24.81;14.54;98086.63;5094376;28;20036;-85
2021/04/10 03:19:50;;;;;;;1.40;0.50;;;;;;;24.62;14.80;98074.22;5091924;28;20058;-85
2021/04/10 03:22:16;;;;;;;0.50;0.50;;;;;;;24.37;14.72;98078.84;5087669;28;20036;-86
2021/04/10 03:24:43;;;;;;;3.92;0.80;;;;;;;24.05;14.93;98077.53;5090831;28;20028;-85
2021/04/10 03:27:11;;;;;;;1.13;0.70;;;;;;;23.96;15.14;98080.13;5091182;28;20031;-85
2021/04/10 03:29:38;;;;;;;0.80;0.60;;;;;;;24.46;14.83;98081.84;5072407;28;20058;-87
2021/04/10 03:32:06;;;;;;;1.42;0.57;;;;;;;24.67;14.72;98079.31;5076204;28;20128;-87
2021/04/10 03:34:34;;;;;;;0.70;0.50;;;;;;;24.52;14.72;98088.53;5093657;28;20036;-87
2021/04/10 03:37:00;;;;;;;2.08;0.80;;;;;;;24.25;14.74;98099.19;5089572;28;20020;-87
2021/04/10 03:39:29;;;;;;;2.42;0.50;;;;;;;24.56;14.60;98095.63;5093288;28;20024;-87
2021/04/10 03:41:56;;;;;;;0.52;0.50;;;;;;;24.85;14.29;98100.59;5094105;28;20044;-87
2021/04/10 03:44:22;;;;;;;0.90;0.60;;;;;;;24.85;14.47;98094.97;5084923;28;20509;-87
2021/04/10 03:46:49;;;;;;;1.67;0.70;;;;;;;24.70;14.62;98098.09;5093310;28;20154;-86
2021/04/10 03:49:15;;;;;;;0.40;0.40;;;;;;;24.93;14.14;98096.38;5093613;28;20120;-87
2021/04/10 03:51:41;;;;;;;1.70;0.63;;;;;;;24.82;14.65;98099.44;5074763;28;20035;-87
2021/04/10 03:54:07;;;;;;;0.60;0.60;;;;;;;24.98;14.36;98098.66;5090811;28;20565;-87
2021/04/10 03:56:33;;;;;;;0.63;0.50;;;;;;;25.10;14.41;98100.75;5092473;28;20055;-86
2021/04/10 03:58:59;;;;;;;0.80;0.80;;;;;;;25.29;13.99;98105.47;5092772;28;20090;-86
2021/04/10 04:01:25;;;;;;;1.60;0.70;;;;;;;25.19;14.12;98103.72;5093322;28;20036;-86
2021/04/10 04:03:51;;;;;;;1.05;0.82;;;;;;;24.98;14.33;98104.28;5092169;28;20028;-86
2021/04/10 04:06:18;;;;;;;3.42;0.50;;;;;;;24.61;14.79;98106.34;5094094;28;20032;-86
2021/04/10 04:08:44;;;;;;;2.60;0.70;;;;;;;24.46;14.70;98102.28;5091755;28;20373;-86
2021/04/10 04:11:10;;;;;;;0.55;0.40;;;;;;;24.51;14.84;98112.19;5091407;28;20032;-86
2021/04/10 04:13:36;;;;;;;1.17;0.52;;;;;;;24.43;14.79;98105.19;5080976;28;20423;-86
2021/04/10 04:16:02;;;;;;;1.55;0.40;;;;;;;24.40;14.75;98114.47;5058390;28;20040;-86
2021/04/10 04:18:28;;;;;;;0.73;0.68;;;;;;;24.84;14.56;98107.44;5053209;28;20037;-86
2021/04/10 04:20:54;;;;;;;1.40;0.50;;;;;;;25.19;14.03;98104.53;5069689;28;20119;-86
2021/04/10 04:23:20;;;;;;;1.65;0.68;;;;;;;25.10;14.27;98107.16;5067101;28;20037;-86
2021/04/10 04:25:46;;;;;;;0.45;0.40;;;;;;;25.11;14.49;98105.91;5062285;28;20369;-86
2021/04/10 04:28:13;;;;;;;0.75;0.52;;;;;;;24.95;14.74;98105.94;5071647;28;20029;-87
2021/04/10 04:30:39;;;;;;;0.70;0.35;;;;;;;25.65;14.39;98113.78;5067827;28;20029;-86
2021/04/10 04:33:05;;;;;;;1.15;0.45;;;;;;;26.13;13.92;98099.53;5066019;28;20032;-86
2021/04/10 04:35:31;;;;;;;0.90;0.43;;;;;;;26.53;13.38;98103.53;5072591;28;20024;-86
2021/04/10 04:37:57;;;;;;;1.00;0.57;;;;;;;27.20;12.74;98098.50;5071843;28;20473;-86
2021/04/10 04:40:23;;;;;;;0.63;0.40;;;;;;;27.87;12.76;98100.97;5073725;28;22046;-86
2021/04/10 04:42:49;;;;;;;0.40;0.32;;;;;;;28.04;12.39;98106.00;5071758;28;20115;-86
2021/04/10 04:45:16;;;;;;;0.50;0.43;;;;;;;27.97;12.53;98108.28;5072106;28;20404;-87
2021/04/10 04:47:42;;;;;;;1.45;0.50;;;;;;;28.02;12.71;98113.34;5069774;28;20040;-87
2021/04/10 04:50:09;;;;;;;2.10;0.60;;;;;;;28.21;12.20;98117.88;5072563;28;20442;-86
2021/04/10 04:52:35;;;;;;;1.55;0.45;;;;;;;28.36;12.49;98112.44;5055061;28;20033;-86
2021/04/10 04:55:01;;;;;;;0.77;0.50;;;;;;;28.42;12.37;98119.09;5063627;28;20106;-87
2021/04/10 04:57:27;;;;;;;0.50;0.40;;;;;;;28.06;13.50;98133.75;5072687;28;20112;-87
2021/04/10 04:59:53;;;;;;;0.40;0.40;;;;;;;28.11;13.15;98127.53;5069540;28;20029;-87
2021/04/10 05:02:19;;;;;;;0.75;0.40;;;;;;;28.32;12.97;98131.56;5067329;28;20024;-87
2021/04/10 05:04:45;;;;;;;0.82;0.55;;;;;;;28.44;13.06;98123.03;5040395;28;20466;-87
2021/04/10 05:07:11;;;;;;;3.38;0.70;;;;;;;28.11;13.47;98127.53;5073193;28;20036;-86
2021/04/10 05:09:37;;;;;;;0.30;0.30;;;;;;;27.94;14.46;98129.72;5071913;28;20532;-88
2021/04/10 05:12:04;;;;;;;2.78;0.70;;;;;;;28.12;14.36;98145.25;5072379;28;20063;-88
2021/04/10 05:14:30;;;;;;;0.70;0.60;;;;;;;27.99;13.58;98128.38;5067944;28;20045;-87
2021/04/10 05:16:56;;;;;;;1.48;0.65;;;;;;;27.87;13.23;98140.50;5063957;28;20027;-88
2021/04/10 05:19:23;;;;;;;1.25;0.55;;;;;;;27.96;13.79;98134.91;5062200;28;20162;-87
2021/04/10 05:21:49;;;;;;;1.90;0.70;;;;;;;28.51;13.89;98127.59;5053605;28;20033;-87
2021/04/10 05:24:15;;;;;;;1.23;0.60;;;;;;;28.45;14.24;98137.94;5068556;28;20040;-87
2021/04/10 05:26:41;;;;;;;0.35;0.30;;;;;;;28.49;14.10;98132.94;5054655;28;20037;-88
2021/04/10 05:29:07;;;;;;;0.80;0.60;;;;;;;28.63;14.00;98133.22;5055583;28;20044;-89
2021/04/10 05:31:33;;;;;;;0.93;0.77;;;;;;;28.55;13.36;98136.72;5055195;28;20413;-89
2021/04/10 05:33:59;;;;;;;0.77;0.60;;;;;;;28.30;13.88;98145.38;5059382;28;20063;-89
2021/04/10 05:36:25;;;;;;;2.58;1.35;;;;;;;27.93;14.28;98142.28;5051279;28;20483;-88
2021/04/10 05:38:51;;;;;;;2.22;1.00;;;;;;;27.95;14.39;98144.63;5068231;28;20040;-88
2021/04/10 05:41:18;;;;;;;1.75;0.70;;;;;;;28.20;14.81;98152.19;5061628;28;20041;-88
2021/04/10 05:43:44;;;;;;;2.05;1.10;;;;;;;28.40;14.65;98156.25;5064026;28;20052;-88
2021/04/10 05:46:11;;;;;;;1.15;0.85;;;;;;;28.60;14.06;98153.91;5067990;28;20071;-86
2021/04/10 05:48:37;;;;;;;1.25;0.88;;;;;;;28.69;13.91;98147.50;5058617;28;20039;-87
2021/04/10 05:51:03;;;;;;;1.73;0.93;;;;;;;28.59;13.95;98146.66;5070098;28;20031;-88
2021/04/10 05:53:29;;;;;;;1.45;0.95;;;;;;;28.70;13.51;98151.91;5062777;28;20388;-87
2021/04/10 05:55:56;;;;;;;0.68;0.60;;;;;;;28.65;13.78;98158.16;5062445;28;20032;-88
2021/04/10 05:58:22;;;;;;;1.95;1.00;;;;;;;28.57;13.12;98159.66;5062305;28;20033;-88
2021/04/10 06:00:48;;;;;;;0.80;0.70;;;;;;;29.44;12.97;98160.19;5066367;28;20033;-88
2021/04/10 06:03:15;;;;;;;1.58;1.15;;;;;;;29.87;12.54;98162.00;5065147;28;20044;-88
2021/04/10 06:05:48;;;;;;;1.35;0.75;;;;;;;30.12;12.73;98167.31;5058032;28;20033;-88
2021/04/10 06:08:14;;;;;;;2.33;0.70;;;;;;;30.40;12.36;98160.38;5065385;28;20051;-88
2021/04/10 06:10:40;;;;;;;1.67;0.60;;;;;;;30.40;12.36;98162.44;5062301;28;20493;-88
2021/04/10 06:13:07;;;;;;;1.02;0.70;;;;;;;30.80;11.95;98168.63;5068146;28;20033;-88
2021/04/10 06:15:33;;;;;;;1.65;0.65;;;;;;;31.03;11.63;98155.78;5085493;28;20028;-88
2021/04/10 06:18:00;;;;;;;0.95;0.55;;;;;;;31.01;11.63;98164.00;5080838;28;20033;-88
2021/04/10 06:20:26;;;;;;;2.35;0.52;;;;;;;30.64;11.91;98166.91;5084907;28;20039;-88
2021/04/10 06:22:52;;;;;;;0.80;0.50;;;;;;;31.12;11.65;98170.72;5078247;28;20047;-88
2021/04/10 06:25:18;;;;;;;1.02;0.68;;;;;;;31.25;11.81;98176.94;5065251;28;22073;-88
2021/04/10 06:27:45;;;;;;;1.23;0.60;;;;;;;31.24;11.84;98172.56;5075274;28;20032;-88
2021/04/10 06:30:11;;;;;;;0.90;0.70;;;;;;;31.35;11.82;98152.13;5081517;28;20039;-88
2021/04/10 06:32:38;;;;;;;1.63;0.70;;;;;;;31.74;11.47;98170.06;5070534;28;20047;-89
2021/04/10 06:35:05;;;;;;;2.17;0.65;;;;;;;31.52;11.60;98166.72;5083053;28;20396;-89
2021/04/10 06:37:31;;;;;;;1.10;0.70;;;;;;;30.81;11.48;98178.69;5088877;28;20085;-89
2021/04/10 06:39:57;;;;;;;2.60;0.73;;;;;;;31.02;11.52;98182.56;5092916;28;20036;-90
2021/04/10 06:42:24;;;;;;;2.67;0.68;;;;;;;31.08;11.80;98172.94;5092676;28;20400;-87
2021/04/10 06:44:51;;;;;;;0.85;0.65;;;;;;;31.51;11.98;98168.03;5086144;28;20107;-87
2021/04/10 06:47:23;;;;;;;3.40;1.13;;;;;;;31.18;11.36;98180.13;5076471;28;20028;-87
2021/04/10 06:49:53;;;;;;;1.13;0.70;;;;;;;31.00;11.86;98182.25;5088417;28;20058;-88
2021/04/10 06:52:20;;;;;;;1.38;0.95;;;;;;;30.81;11.93;98183.59;5086855;28;20032;-88
2021/04/10 06:54:51;;;;;;;2.78;0.60;;;;;;;30.81;12.39;98177.91;5093291;28;20123;-86
2021/04/10 06:57:22;;;;;;;2.60;0.63;;;;;;;30.32;12.14;98173.28;5087327;28;20039;-87
2021/04/10 07:00:02;;;;;;;;;;;;;;;30.24;11.96;98176.91;5085685;28;20065;-87
2021/04/10 07:02:30;;;;;;;4.10;0.70;;;;;;;30.25;12.66;98181.31;5084794;28;20384;-91
2021/04/10 07:04:56;;;;;;;1.13;0.60;;;;;;;30.29;12.34;98179.13;5090141;28;20074;-92
2021/04/10 07:07:28;;;;;;;0.70;0.60;;;;;;;30.66;12.64;98177.81;5091390;28;20110;-91
2021/04/10 07:09:54;;;;;;;0.90;0.60;;;;;;;30.87;12.15;98178.84;5083998;28;20036;-91
2021/04/10 07:12:21;;;;;;;0.95;0.60;;;;;;;30.88;12.36;98183.25;5095169;28;20061;-91
2021/04/10 07:14:47;;;;;;;0.85;0.60;;;;;;;30.87;12.28;98185.28;5076345;28;20057;-91
2021/04/10 07:17:15;;;;;;;1.25;0.60;;;;;;;31.03;12.13;98181.31;5066400;28;20107;-90
2021/04/10 07:19:41;;;;;;;2.53;0.70;;;;;;;30.64;11.66;98186.75;5067731;28;20033;-91
2021/04/10 07:22:09;;;;;;;1.10;0.80;;;;;;;29.94;12.12;98179.44;5072369;28;20040;-89
2021/04/10 07:24:50;;;;;;;0.57;0.50;;;;;;;30.69;12.88;98171.94;5071798;28;20569;-91
2021/04/10 07:27:18;;;;;;;;;;;;;;;30.48;11.59;98184.28;5071635;28;20040;-88
2021/04/10 07:29:46;;;;;;;0.68;0.52;;;;;;;31.03;12.02;98189.81;5081199;28;19918;-90
2021/04/10 07:32:24;;;;;;;1.27;0.70;;;;;;;31.06;12.37;98186.03;5073037;28;20028;-90
2021/04/10 07:34:51;;;;;;;1.48;0.63;;;;;;;30.76;12.97;98188.63;5072857;28;20488;-87
2021/04/10 07:37:32;;;;;;;1.05;0.60;;;;;;;29.86;11.67;98185.88;5072302;28;20062;-87
2021/04/10 07:39:59;;;;;;;1.15;0.55;;;;;;;30.49;12.99;98185.06;5059731;28;20033;-88
2021/04/10 07:42:27;;;;;;;1.92;0.80;;;;;;;30.12;12.08;98186.34;5070983;28;20032;-88
2021/04/10 07:44:53;;;;;;;2.53;0.60;;;;;;;30.61;12.77;98184.91;5076974;28;20036;-89
2021/04/10 07:47:38;;;;;;;0.95;0.50;;;;;;;30.87;13.08;98188.13;5081110;28;20404;-88
2021/04/10 07:50:23;;;;;;;0.95;0.40;;;;;;;31.07;12.57;98181.91;5067709;28;20059;-88
2021/04/10 07:52:49;;;;;;;1.35;0.55;;;;;;;31.15;12.23;98192.47;5058457;28;22248;-87
2021/04/10 07:55:40;;;;;;;1.30;0.57;;;;;;;31.09;11.55;98185.84;5065964;28;20024;-88
2021/04/10 07:58:26;;;;;;;0.40;0.40;;;;;;;31.44;12.46;98180.50;5063226;28;20027;-87
2021/04/10 08:00:57;;;;;;;1.92;0.77;;;;;;;30.71;12.36;98186.44;5066521;28;20040;-87
2021/04/10 08:03:41;;;;;;;2.22;1.13;;;;;;;29.46;13.03;98174.66;5064248;28;20121;-88
2021/04/10 08:06:07;;;;;;;0.95;0.75;;;;;;;30.04;12.80;98177.38;5061114;28;20074;-87
2021/04/10 08:08:43;;;;;;;1.13;0.60;;;;;;;30.49;12.42;98180.19;5059389;28;20028;-87
2021/04/10 08:11:10;;;;;;;2.35;0.60;;;;;;;31.10;11.69;98159.06;5069153;28;20040;-87
2021/04/10 08:13:36;;;;;;;1.65;1.00;;;;;;;31.08;12.88;98175.00;5066572;28;20052;-86
2021/04/10 08:16:15;;;;;;;0.50;0.50;;;;;;;31.14;12.51;98167.38;5072723;28;20056;-86
2021/04/10 08:18:53;;;;;;;3.53;0.65;;;;;;;31.32;11.41;98164.47;5068755;28;20431;-85
2021/04/10 08:21:21;;;;;;;1.67;0.70;;;;;;;31.37;11.15;98166.63;5071341;28;20035;-87
2021/04/10 08:23:48;;;;;;;0.80;0.55;;;;;;;32.07;11.18;98157.34;5071426;28;20031;-88
2021/04/10 08:26:15;;;;;;;1.13;0.60;;;;;;;32.24;11.48;98173.91;5072859;28;20105;-86
2021/04/10 08:28:42;;;;;;;1.42;0.50;;;;;;;31.52;12.48;98164.69;5070200;28;20029;-85
2021/04/10 08:31:09;;;;;;;0.60;0.47;;;;;;;31.54;12.71;98164.19;5045535;28;20914;-85
2021/04/10 08:33:36;;;;;;;1.25;0.60;;;;;;;32.19;11.26;98160.38;5040174;28;20114;-88
2021/04/10 08:36:08;;;;;;;1.77;0.60;;;;;;;32.19;10.78;98169.69;5064111;28;20115;-86
2021/04/10 08:38:35;;;;;;;3.60;0.90;;;;;;;31.81;11.59;98170.47;5050112;28;20509;-87
2021/04/10 08:41:05;;;;;;;1.23;0.70;;;;;;;31.81;11.66;98169.69;5061371;28;20033;-87
2021/04/10 08:43:35;;;;;;;0.73;0.40;;;;;;;32.09;12.15;98169.00;5058475;28;20393;-85
2021/04/10 08:46:04;;;;;;;1.88;0.93;;;;;;;32.37;11.40;98171.59;5060870;28;20511;-88
2021/04/10 08:48:33;;;;;;;2.05;0.50;;;;;;;31.62;11.94;98177.56;5063332;28;20024;-89
2021/04/10 08:51:02;;;;;;;0.65;0.60;;;;;;;31.91;12.11;98171.97;5070529;28;20040;-89
2021/04/10 08:53:36;;;;;;;1.02;0.52;;;;;;;32.27;11.97;98176.56;5070064;28;20071;-87
2021/04/10 08:56:10;;;;;;;0.77;0.60;;;;;;;31.83;11.91;98170.78;5071280;28;20032;-88
2021/04/10 08:58:41;;;;;;;0.70;0.70;;;;;;;32.06;11.58;98175.66;5073177;28;20039;-88
2021/04/10 09:01:18;;;;;;;1.13;0.55;;;;;;;32.16;11.77;98175.59;5069943;28;20044;-86
2021/04/10 09:03:50;;;;;;;1.17;0.55;;;;;;;32.09;11.56;98171.06;5072018;28;20083;-88
2021/04/10 09:06:37;;;;;;;0.55;0.50;;;;;;;31.70;13.16;98173.06;5071714;28;20075;-87
2021/04/10 09:09:15;;;;;;;1.58;0.70;;;;;;;31.48;11.45;98166.13;5077769;28;20036;-86
2021/04/10 09:11:44;;;;;;;0.75;0.60;;;;;;;31.46;12.11;98160.16;5073162;28;20435;-87
2021/04/10 09:14:13;;;;;;;1.17;0.60;;;;;;;31.66;11.75;98163.97;5071989;28;20155;-86
2021/04/10 09:16:48;;;;;;;0.60;0.50;;;;;;;32.42;11.11;98160.31;5070386;28;20039;-87
2021/04/10 09:19:24;;;;;;;1.10;1.05;;;;;;;32.90;11.71;98163.75;5061668;28;20036;-88
2021/04/10 09:21:59;;;;;;;0.70;0.63;;;;;;;32.07;11.09;98165.06;5061713;28;20028;-87
2021/04/10 09:24:31;;;;;;;1.00;0.50;;;;;;;32.47;11.58;98168.16;5069262;28;20036;-89
2021/04/10 09:27:22;;;;;;;1.02;0.70;;;;;;;32.69;10.91;98167.78;5069127;28;20111;-88
2021/04/10 09:30:01;;;;;;;1.63;0.68;;;;;;;32.07;11.61;98165.06;5070373;28;20028;-87
2021/04/10 09:32:37;;;;;;;0.45;0.32;;;;;;;32.74;10.97;98155.75;5055992;28;20041;-86
2021/04/10 09:35:14;;;;;;;1.98;0.45;;;;;;;32.41;11.78;98161.59;5060263;28;20032;-88
2021/04/10 09:37:40;;;;;;;0.55;0.47;;;;;;;32.49;10.77;98159.13;5071041;28;20390;-89
2021/04/10 09:40:17;;;;;;;2.42;0.60;;;;;;;32.97;11.02;98154.81;5059770;28;20075;-86
2021/04/10 09:42:45;;;;;;;0.52;0.40;;;;;;;33.50;10.57;98150.94;5057783;28;20058;-87
2021/04/10 09:45:23;;;;;;;1.13;0.63;;;;;;;32.86;10.73;98163.16;5068364;28;20036;-88
2021/04/10 09:48:01;;;;;;;0.60;0.57;;;;;;;33.31;10.72;98154.06;5066249;28;20589;-88
2021/04/10 09:50:50;;;;;;;1.13;0.50;;;;;;;33.64;10.39;98161.53;5066109;28;20063;-89
2021/04/10 09:53:20;;;;;;;0.70;0.50;;;;;;;33.37;11.03;98152.06;5049159;28;20044;-89
2021/04/10 09:55:48;;;;;;;1.13;0.47;;;;;;;33.19;10.82;98155.19;5061476;28;20072;-89
2021/04/10 09:58:19;;;;;;;0.60;0.30;;;;;;;33.82;11.33;98150.63;5056634;28;20021;-89
2021/04/10 10:00:45;;;;;;;0.82;0.50;;;;;;;33.13;12.26;98157.16;5057563;28;20060;-89
2021/04/10 10:03:14;;;;;;;2.38;0.68;;;;;;;32.98;11.83;98145.00;5065422;28;20426;-88
2021/04/10 10:05:44;;;;;;;0.40;0.40;;;;;;;33.67;10.03;98144.22;5067662;28;20549;-87
2021/04/10 10:08:13;;;;;;;0.90;0.60;;;;;;;33.15;12.46;98143.22;5068562;28;20067;-87
2021/04/10 10:10:44;;;;;;;1.13;0.40;;;;;;;33.48;10.65;98145.75;5055783;28;20037;-87
2021/04/10 10:13:15;;;;;;;0.57;0.40;;;;;;;33.27;11.05;98139.25;5067044;28;20037;-86
2021/04/10 10:15:46;;;;;;;1.25;0.70;;;;;;;31.50;12.13;98140.88;5080869;28;20082;-85
2021/04/10 10:18:23;;;;;;;4.68;0.70;;;;;;;32.66;11.85;98140.34;5080959;28;20062;-85
2021/04/10 10:21:01;;;;;;;0.93;0.65;;;;;;;32.80;11.24;98133.84;5089995;28;20062;-85
2021/04/10 10:23:40;;;;;;;0.75;0.40;;;;;;;32.44;10.68;98125.72;5090563;28;20060;-87
2021/04/10 10:26:12;;;;;;;0.88;0.50;;;;;;;32.14;12.43;98139.13;5087464;28;20117;-87
2021/04/10 10:28:42;;;;;;;4.70;0.50;;;;;;;32.13;12.00;98126.19;5083032;28;20024;-86
2021/04/10 10:31:14;;;;;;;0.60;0.38;;;;;;;33.29;11.28;98125.31;5093170;28;20040;-88
2021/04/10 10:33:41;;;;;;;2.17;0.47;;;;;;;33.74;10.68;98123.88;5085419;28;20413;-88
2021/04/10 10:36:08;;;;;;;0.63;0.60;;;;;;;33.30;10.46;98126.88;5078507;28;20045;-86
2021/04/10 10:38:40;;;;;;;1.55;0.50;;;;;;;33.40;10.90;98122.63;5090815;28;20017;-86
2021/04/10 10:41:07;;;;;;;1.75;0.50;;;;;;;33.26;10.58;98119.81;5076356;28;20025;-86
2021/04/10 10:43:36;;;;;;;0.47;0.40;;;;;;;33.81;10.61;98128.34;5083486;28;20119;-86
2021/04/10 10:46:07;;;;;;;1.42;0.38;;;;;;;33.92;10.64;98119.91;5094566;28;20036;-86
2021/04/10 10:48:34;;;;;;;2.25;0.47;;;;;;;34.10;10.37;98122.47;5089110;28;20049;-86
2021/04/10 10:51:00;;;;;;;1.17;0.40;;;;;;;34.24;10.18;98129.38;5076105;28;20064;-87
2021/04/10 10:53:36;;;;;;;1.05;0.60;;;;;;;34.39;10.41;98127.97;5092747;28;20078;-87
2021/04/10 10:56:24;;;;;;;0.40;0.40;;;;;;;33.27;11.13;98119.34;5083725;28;20032;-87
2021/04/10 10:58:57;;;;;;;0.30;0.25;;;;;;;33.37;11.30;98126.44;5088287;28;20064;-86
2021/04/10 11:01:23;;;;;;;1.15;0.47;;;;;;;33.20;10.84;98122.59;5085024;28;20029;-87
2021/04/10 11:04:06;;;;;;;1.23;0.60;;;;;;;33.44;10.78;98125.25;5075927;28;20029;-87
2021/04/10 11:06:42;;;;;;;0.47;0.47;;;;;;;33.95;11.33;98131.09;5084086;28;20040;-84
2021/04/10 11:09:11;;;;;;;0.75;0.50;;;;;;;33.44;10.61;98128.13;5092569;28;20111;-83
2021/04/10 11:11:41;;;;;;;1.85;0.43;;;;;;;33.67;10.80;98121.44;5090613;28;20427;-83
2021/04/10 11:14:09;;;;;;;1.23;0.50;;;;;;;33.87;10.40;98127.13;5091525;28;20147;-83
2021/04/10 11:16:46;;;;;;;1.83;0.45;;;;;;;33.89;10.28;98110.31;5092709;28;20040;-83
2021/04/10 11:19:24;;;;;;;0.90;0.45;;;;;;;34.38;9.59;98123.53;5087221;28;20090;-83
2021/04/10 11:21:51;;;;;;;0.98;0.50;;;;;;;34.12;10.69;98116.28;5093695;28;20084;-84
2021/04/10 11:24:18;;;;;;;0.50;0.45;;;;;;;34.50;9.10;98118.72;5095324;28;20035;-83
2021/04/10 11:26:55;;;;;;;1.55;0.70;;;;;;;34.42;10.23;98115.56;5082300;28;20082;-83
2021/04/10 11:29:21;;;;;;;1.15;0.47;;;;;;;34.21;10.49;98116.91;5076854;28;20020;-83
2021/04/10 11:32:06;;;;;;;0.47;0.30;;;;;;;35.19;9.23;98117.50;5087305;28;20078;-83
2021/04/10 11:34:33;;;;;;;2.05;0.40;;;;;;;35.13;9.29;98108.09;5095190;28;20043;-83
2021/04/10 11:37:02;;;;;;;0.82;0.82;;;;;;;35.31;8.09;98110.56;5088301;28;20036;-84
2021/04/10 11:39:29;;;;;;;0.63;0.45;;;;;;;34.39;9.22;98113.72;5086127;28;20029;-84
2021/04/10 11:41:56;;;;;;;1.05;0.40;;;;;;;34.75;9.20;98113.00;5074995;28;20036;-83
2021/04/10 11:44:23;;;;;;;0.73;0.25;;;;;;;35.13;8.38;98108.09;5075398;28;20036;-83
2021/04/10 11:46:59;;;;;;;0.32;0.30;;;;;;;34.56;8.62;98111.81;5079750;28;20055;-83